Time;durP1;ratioP1;P1;durP2;ratioP2;P2;SDS_P1;SDS_P2;PMS_P1;PMS_P2;Temp;Humidity;BMP_temperature;BMP_pressure;BME280_temperature;BME280_humidity;BME280_pressure;Samples;Min_cycle;Max_cycle;Signal;HPM_P1;HPM_P2
2022/04/16 00:01:49;;;;;;;16.17;13.27;;;12.30;98.60;;;;;;5050076;28;20204;-37
2022/04/16 00:04:16;;;;;;;14.67;13.10;;;12.30;98.60;;;;;;5043464;28;20201;-39
2022/04/16 00:06:46;;;;;;;15.30;13.20;;;12.30;98.60;;;;;;5067027;28;20235;-39
2022/04/16 00:09:14;;;;;;;14.90;13.30;;;12.30;98.70;;;;;;5062153;28;20209;-38
2022/04/16 00:11:41;;;;;;;15.07;12.90;;;12.30;98.60;;;;;;5030103;28;20826;-35
2022/04/16 00:14:10;;;;;;;13.87;12.17;;;12.20;98.70;;;;;;5036951;28;20205;-38
2022/04/16 00:16:44;;;;;;;15.80;12.80;;;12.20;98.60;;;;;;5030025;28;20278;-38
2022/04/16 00:19:11;;;;;;;15.83;13.93;;;12.20;98.60;;;;;;5062251;28;20228;-38
2022/04/16 00:21:39;;;;;;;14.90;13.37;;;12.20;98.60;;;;;;5030062;28;20224;-38
2022/04/16 00:24:08;;;;;;;14.73;12.80;;;12.20;98.70;;;;;;5029670;28;20251;-38
2022/04/16 00:26:40;;;;;;;14.57;12.53;;;12.20;98.60;;;;;;5029976;28;20220;-38
2022/04/16 00:29:12;;;;;;;14.57;13.03;;;12.20;98.60;;;;;;5029681;28;20204;-38
2022/04/16 00:31:45;;;;;;;14.50;12.47;;;12.20;98.70;;;;;;5030970;28;20702;-36
2022/04/16 00:34:14;;;;;;;14.33;12.67;;;12.10;98.60;;;;;;5029797;28;20275;-37
2022/04/16 00:36:47;;;;;;;15.37;12.67;;;12.10;98.60;;;;;;5048867;28;20675;-37
2022/04/16 00:39:19;;;;;;;16.27;12.13;;;12.10;98.70;;;;;;5049687;28;20295;-37
2022/04/16 00:41:53;;;;;;;13.93;12.50;;;12.10;98.60;;;;;;5049581;28;20196;-37
2022/04/16 00:44:20;;;;;;;15.70;12.27;;;12.10;98.70;;;;;;5049804;28;20220;-37
2022/04/16 00:46:50;;;;;;;14.73;13.20;;;12.10;98.80;;;;;;5047814;28;20196;-36
2022/04/16 00:49:17;;;;;;;14.03;12.57;;;12.10;98.80;;;;;;5037091;28;20207;-38
2022/04/16 00:51:50;;;;;;;15.07;12.77;;;12.10;98.70;;;;;;5029331;28;20201;-38
2022/04/16 00:54:18;;;;;;;14.80;12.40;;;12.00;98.60;;;;;;5060821;28;20233;-37
2022/04/16 00:56:48;;;;;;;15.83;14.20;;;12.00;98.60;;;;;;5029316;28;20256;-38
2022/04/16 00:59:15;;;;;;;13.60;12.20;;;12.00;98.70;;;;;;5028428;28;20224;-38
2022/04/16 01:01:47;;;;;;;15.23;13.17;;;12.00;98.60;;;;;;5049100;28;20247;-38
2022/04/16 01:04:17;;;;;;;16.47;14.37;;;12.00;98.70;;;;;;5047804;28;20692;-37
2022/04/16 01:06:48;;;;;;;14.57;13.07;;;12.00;98.90;;;;;;5048041;28;20208;-38
2022/04/16 01:09:16;;;;;;;15.07;12.97;;;12.00;98.60;;;;;;5045858;28;20678;-37
2022/04/16 01:11:46;;;;;;;16.13;13.87;;;12.00;98.70;;;;;;5047291;28;20204;-38
2022/04/16 01:14:21;;;;;;;15.07;13.23;;;12.00;98.70;;;;;;5043749;28;20200;-38
2022/04/16 01:16:52;;;;;;;15.37;13.77;;;11.90;98.70;;;;;;5048780;28;20578;-38
2022/04/16 01:19:21;;;;;;;17.73;14.53;;;11.90;98.70;;;;;;5047118;28;20221;-38
2022/04/16 01:21:51;;;;;;;16.77;14.97;;;11.90;98.70;;;;;;5047138;28;20200;-38
2022/04/16 01:24:18;;;;;;;18.20;14.90;;;11.90;98.80;;;;;;5046845;28;20217;-38
2022/04/16 01:26:49;;;;;;;17.87;15.03;;;11.90;98.70;;;;;;5047885;28;20278;-38
2022/04/16 01:29:20;;;;;;;17.17;14.80;;;11.90;98.80;;;;;;5047235;28;20231;-37
2022/04/16 01:31:50;;;;;;;18.57;15.57;;;11.90;98.80;;;;;;5048424;28;20204;-38
2022/04/16 01:34:18;;;;;;;17.87;14.97;;;11.80;98.70;;;;;;5048177;28;20570;-37
2022/04/16 01:36:50;;;;;;;19.10;15.23;;;11.90;98.80;;;;;;5046522;28;20307;-37
2022/04/16 01:39:18;;;;;;;19.20;15.23;;;11.90;98.80;;;;;;5038995;28;20646;-38
2022/04/16 01:41:47;;;;;;;19.20;16.37;;;11.80;98.80;;;;;;5011014;28;20262;-37
2022/04/16 01:44:14;;;;;;;18.90;16.10;;;11.80;98.90;;;;;;5045872;28;20711;-38
2022/04/16 01:46:41;;;;;;;16.17;14.43;;;11.80;98.80;;;;;;5048352;28;20214;-37
2022/04/16 01:49:13;;;;;;;16.23;14.50;;;11.80;98.70;;;;;;5062954;28;20210;-37
2022/04/16 01:51:43;;;;;;;16.97;14.83;;;11.80;98.70;;;;;;5067359;28;20655;-37
2022/04/16 01:54:12;;;;;;;17.87;14.93;;;11.70;98.70;;;;;;5068135;28;20583;-37
2022/04/16 01:56:42;;;;;;;20.00;16.13;;;11.70;99.00;;;;;;5042879;28;20468;-38
2022/04/16 01:59:12;;;;;;;18.10;15.47;;;11.70;98.80;;;;;;5028781;28;20699;-37
2022/04/16 02:01:45;;;;;;;17.97;14.83;;;11.70;98.80;;;;;;5048094;28;20253;-38
2022/04/16 02:04:15;;;;;;;17.73;15.83;;;11.70;98.80;;;;;;5046599;28;20228;-37
2022/04/16 02:06:44;;;;;;;20.93;15.77;;;11.70;98.80;;;;;;5045811;28;20295;-37
2022/04/16 02:09:11;;;;;;;18.33;15.63;;;11.60;98.70;;;;;;5047685;28;20238;-38
2022/04/16 02:11:38;;;;;;;20.00;16.13;;;11.60;98.80;;;;;;5046455;28;20303;-38
2022/04/16 02:14:09;;;;;;;19.60;15.30;;;11.60;98.90;;;;;;5041122;28;20255;-38
2022/04/16 02:16:38;;;;;;;19.43;16.03;;;11.50;98.90;;;;;;5033715;28;20223;-37
2022/04/16 02:19:06;;;;;;;18.73;15.43;;;11.50;99.00;;;;;;5027410;28;20304;-38
2022/04/16 02:21:36;;;;;;;18.10;14.17;;;11.50;98.80;;;;;;5026068;28;20278;-37
2022/04/16 02:24:08;;;;;;;19.43;16.03;;;11.50;98.70;;;;;;5027726;28;20312;-37
2022/04/16 02:26:35;;;;;;;19.27;14.90;;;11.50;98.80;;;;;;5027758;28;20757;-38
2022/04/16 02:29:08;;;;;;;17.87;15.07;;;11.40;98.80;;;;;;5027427;28;20291;-38
2022/04/16 02:31:37;;;;;;;18.40;15.03;;;11.40;99.40;;;;;;5047662;28;20224;-37
2022/04/16 02:34:07;;;;;;;18.50;15.27;;;11.40;98.90;;;;;;5045000;28;20239;-37
2022/04/16 02:36:34;;;;;;;21.10;15.13;;;11.40;98.80;;;;;;5046943;28;20627;-38
2022/04/16 02:39:02;;;;;;;19.93;14.80;;;11.30;98.90;;;;;;5047599;28;20531;-37
2022/04/16 02:41:32;;;;;;;18.23;14.63;;;11.30;98.90;;;;;;5047089;28;20681;-37
2022/04/16 02:44:05;;;;;;;19.33;16.63;;;11.30;98.80;;;;;;5047253;28;20734;-38
2022/04/16 02:49:20;;;;;;;19.40;17.27;;;11.30;98.80;;;;;;5062262;28;20648;-37
2022/04/16 02:51:53;;;;;;;18.10;14.80;;;11.20;99.20;;;;;;5037263;28;20312;-37
2022/04/16 02:54:25;;;;;;;17.90;15.30;;;11.20;98.90;;;;;;5027283;28;20236;-38
2022/04/16 02:56:54;;;;;;;18.47;14.73;;;11.20;98.80;;;;;;5027367;28;20632;-38
2022/04/16 02:59:22;;;;;;;16.77;14.97;;;11.20;98.80;;;;;;5027436;28;20240;-38
2022/04/16 03:01:49;;;;;;;19.93;16.23;;;11.20;98.80;;;;;;5025805;28;20216;-38
2022/04/16 03:04:17;;;;;;;19.33;16.47;;;11.20;98.80;;;;;;5027761;28;20208;-38
2022/04/16 03:06:46;;;;;;;16.07;14.37;;;11.20;99.00;;;;;;5025178;28;20563;-38
2022/04/16 03:09:14;;;;;;;19.07;15.60;;;11.20;98.90;;;;;;5044772;28;20254;-38
2022/04/16 03:11:41;;;;;;;17.53;15.17;;;11.20;98.90;;;;;;5047021;28;20213;-38
2022/04/16 03:19:47;;;;;;;19.97;16.80;;;11.10;98.90;;;;;;5046676;28;20307;-37
2022/04/16 03:22:19;;;;;;;21.07;16.73;;;11.10;99.00;;;;;;5029161;28;20204;-37
2022/04/16 03:24:46;;;;;;;23.00;17.03;;;11.00;99.20;;;;;;5030699;28;20232;-37
2022/04/16 03:27:16;;;;;;;20.77;16.77;;;11.00;99.10;;;;;;5037898;28;20300;-36
2022/04/16 03:29:45;;;;;;;20.33;16.27;;;11.00;99.10;;;;;;5025734;28;20594;-37
2022/04/16 03:32:13;;;;;;;19.73;16.50;;;11.00;99.00;;;;;;5027349;28;20197;-36
2022/04/16 03:34:43;;;;;;;20.40;16.83;;;11.00;99.00;;;;;;5026301;28;20197;-37
2022/04/16 03:37:15;;;;;;;18.00;15.47;;;11.00;99.00;;;;;;5025561;28;20252;-37
2022/04/16 03:39:44;;;;;;;18.77;15.87;;;11.00;98.90;;;;;;5046699;28;20702;-36
2022/04/16 03:42:13;;;;;;;20.60;16.77;;;10.90;98.90;;;;;;5039384;28;20211;-36
2022/04/16 03:44:42;;;;;;;20.13;16.67;;;10.90;98.90;;;;;;5030785;28;20237;-36
2022/04/16 03:47:11;;;;;;;19.60;16.77;;;10.90;98.90;;;;;;5030441;28;20197;-37
2022/04/16 03:49:40;;;;;;;18.80;15.57;;;10.90;98.90;;;;;;5029869;28;20232;-36
2022/04/16 03:52:08;;;;;;;23.13;18.07;;;10.90;98.90;;;;;;5030523;28;20726;-36
2022/04/16 04:00:09;;;;;;;19.37;16.13;;;10.80;98.90;;;;;;5047313;28;20259;-36
2022/04/16 04:02:38;;;;;;;21.33;17.60;;;10.80;98.90;;;;;;5050388;28;20201;-35
2022/04/16 04:05:06;;;;;;;19.20;16.97;;;10.70;99.00;;;;;;5049616;28;20216;-36
2022/04/16 04:07:34;;;;;;;20.20;17.33;;;10.70;99.00;;;;;;5048243;28;20203;-36
2022/04/16 04:10:02;;;;;;;21.13;17.67;;;10.70;99.00;;;;;;5050205;28;20231;-36
2022/04/16 04:12:29;;;;;;;21.30;17.53;;;10.70;99.00;;;;;;5047802;28;20226;-36
2022/04/16 04:14:59;;;;;;;24.93;18.57;;;10.70;99.00;;;;;;5039142;28;20596;-35
2022/04/16 04:17:26;;;;;;;21.53;17.03;;;10.60;99.00;;;;;;5048897;28;20716;-36
2022/04/16 04:19:53;;;;;;;21.33;17.50;;;10.60;99.00;;;;;;5049175;28;20255;-35
2022/04/16 04:22:23;;;;;;;20.07;17.27;;;10.60;99.10;;;;;;5049728;28;20235;-36
2022/04/16 04:24:55;;;;;;;21.60;17.60;;;10.60;99.00;;;;;;5048669;28;20727;-36
2022/04/16 04:27:22;;;;;;;23.23;18.33;;;10.60;99.00;;;;;;5049957;28;20196;-36
2022/04/16 04:29:56;;;;;;;20.67;17.80;;;10.60;99.00;;;;;;5047755;28;20220;-36
2022/04/16 04:32:24;;;;;;;22.27;18.33;;;10.60;99.00;;;;;;5045894;28;20220;-36
2022/04/16 04:34:51;;;;;;;20.90;17.27;;;10.60;99.00;;;;;;5029162;28;20215;-36
2022/04/16 04:37:21;;;;;;;20.47;17.43;;;10.60;99.00;;;;;;5036862;28;20307;-36
2022/04/16 04:39:49;;;;;;;21.47;18.43;;;10.50;99.00;;;;;;5033654;28;20220;-35
2022/04/16 04:42:29;;;;;;;21.93;17.30;;;10.50;98.90;;;;;;5029543;28;20205;-36
2022/04/16 04:45:05;;;;;;;21.23;17.73;;;10.50;99.10;;;;;;5029767;28;20208;-37
2022/04/16 04:47:35;;;;;;;26.63;19.97;;;10.50;99.00;;;;;;5044239;28;20226;-36
2022/04/16 04:50:03;;;;;;;23.27;18.80;;;10.50;99.00;;;;;;5052674;28;20236;-36
2022/04/16 04:52:30;;;;;;;22.30;18.83;;;10.50;99.00;;;;;;5028907;28;20265;-37
2022/04/16 04:54:59;;;;;;;21.87;18.27;;;10.50;99.00;;;;;;5029195;28;20240;-37
2022/04/16 04:57:32;;;;;;;23.70;19.23;;;10.50;99.00;;;;;;5029656;28;20239;-37
2022/04/16 04:59:59;;;;;;;25.50;19.43;;;10.50;99.10;;;;;;5029731;28;20643;-38
2022/04/16 05:02:40;;;;;;;21.77;19.17;;;10.50;99.10;;;;;;5029935;28;20287;-39
2022/04/16 05:05:08;;;;;;;22.93;17.97;;;10.50;99.20;;;;;;5027188;28;20221;-38
2022/04/16 05:07:35;;;;;;;22.73;18.33;;;10.50;99.10;;;;;;5040794;28;20208;-38
2022/04/16 05:10:07;;;;;;;22.23;18.13;;;10.50;99.10;;;;;;5049161;28;20661;-37
2022/04/16 05:12:34;;;;;;;22.97;18.70;;;10.40;99.10;;;;;;5049213;28;20200;-37
2022/04/16 05:15:05;;;;;;;22.67;19.60;;;10.40;99.10;;;;;;5047975;28;20229;-36
2022/04/16 05:17:32;;;;;;;23.03;19.50;;;10.40;99.30;;;;;;5036625;28;20225;-38
2022/04/16 05:20:03;;;;;;;25.37;19.97;;;10.40;99.20;;;;;;5028288;28;20201;-36
2022/04/16 05:22:30;;;;;;;24.67;19.17;;;10.40;99.20;;;;;;5028444;28;20197;-36
2022/04/16 05:25:00;;;;;;;24.80;19.90;;;10.40;99.20;;;;;;5044286;28;20208;-36
2022/04/16 05:27:30;;;;;;;24.93;20.93;;;10.40;99.30;;;;;;5041174;28;20284;-36
2022/04/16 05:30:06;;;;;;;22.30;18.90;;;10.40;99.50;;;;;;5028687;28;20633;-37
2022/04/16 05:32:39;;;;;;;25.07;20.03;;;10.40;99.20;;;;;;5028688;28;20220;-37
2022/04/16 05:35:11;;;;;;;22.63;19.43;;;10.40;99.20;;;;;;5026535;28;20204;-37
2022/04/16 05:37:39;;;;;;;23.07;19.13;;;10.40;99.20;;;;;;5028678;28;20225;-36
2022/04/16 05:40:09;;;;;;;25.57;20.07;;;10.40;99.20;;;;;;5028806;28;20538;-37
2022/04/16 05:42:43;;;;;;;25.70;20.10;;;10.50;99.30;;;;;;5028747;28;20292;-36
2022/04/16 05:45:14;;;;;;;24.00;19.20;;;10.50;99.30;;;;;;5027152;28;20734;-37
2022/04/16 05:47:43;;;;;;;23.17;19.17;;;10.50;99.20;;;;;;5037457;28;20249;-37
2022/04/16 05:50:14;;;;;;;24.20;18.20;;;10.50;99.30;;;;;;5052233;28;20621;-36
2022/04/16 05:52:41;;;;;;;26.10;20.60;;;10.50;99.30;;;;;;5048049;28;20242;-37
2022/04/16 05:55:13;;;;;;;22.33;19.33;;;10.50;99.30;;;;;;5029460;28;20241;-37
2022/04/16 05:57:41;;;;;;;22.83;19.90;;;10.50;99.40;;;;;;5032979;28;20235;-36
2022/04/16 06:00:17;;;;;;;26.80;20.73;;;10.50;99.40;;;;;;5047960;28;20243;-37
2022/04/16 06:02:45;;;;;;;26.30;20.60;;;10.50;99.40;;;;;;5048122;28;20274;-36
2022/04/16 06:05:13;;;;;;;24.23;20.50;;;10.50;99.50;;;;;;5045350;28;20686;-37
2022/04/16 06:07:40;;;;;;;24.23;19.97;;;10.50;99.50;;;;;;5047634;28;20262;-37
2022/04/16 06:10:08;;;;;;;22.97;20.27;;;10.50;99.40;;;;;;5046434;28;20207;-37
2022/04/16 06:12:35;;;;;;;24.27;19.93;;;10.50;99.60;;;;;;5047955;28;20212;-37
2022/04/16 06:15:02;;;;;;;23.73;20.27;;;10.50;99.50;;;;;;5039488;28;20201;-37
2022/04/16 06:17:30;;;;;;;25.27;20.50;;;10.60;99.50;;;;;;5028226;28;20259;-38
2022/04/16 06:19:59;;;;;;;29.37;21.93;;;10.60;99.50;;;;;;5026076;28;20311;-37
2022/04/16 06:22:29;;;;;;;25.40;20.03;;;10.60;99.60;;;;;;5027925;28;20197;-37
2022/04/16 06:24:58;;;;;;;23.70;19.97;;;10.60;99.60;;;;;;5028037;28;20292;-37
2022/04/16 06:27:30;;;;;;;28.43;21.33;;;10.60;99.60;;;;;;5029337;28;20556;-37
2022/04/16 06:29:59;;;;;;;25.07;21.17;;;10.70;99.60;;;;;;5047587;28;20291;-37
2022/04/16 06:32:26;;;;;;;26.47;21.47;;;10.70;99.70;;;;;;5036600;28;20228;-38
2022/04/16 06:34:58;;;;;;;25.37;21.20;;;10.70;99.70;;;;;;5026690;28;20327;-37
2022/04/16 06:37:25;;;;;;;27.07;21.40;;;10.80;99.80;;;;;;5027510;28;20705;-37
2022/04/16 06:39:53;;;;;;;25.47;21.47;;;10.80;99.70;;;;;;5027129;28;20292;-37
2022/04/16 06:42:22;;;;;;;24.30;20.47;;;10.80;99.80;;;;;;5027604;28;20569;-37
2022/04/16 06:44:49;;;;;;;25.33;20.97;;;10.90;99.80;;;;;;5027673;28;20284;-37
2022/04/16 06:47:19;;;;;;;25.13;21.07;;;10.90;99.90;;;;;;5029315;28;20213;-37
2022/04/16 06:49:49;;;;;;;24.27;20.57;;;10.90;99.90;;;;;;5037483;28;20220;-37
2022/04/16 06:52:20;;;;;;;26.27;21.47;;;10.90;99.90;;;;;;5027498;28;20197;-37
2022/04/16 06:54:47;;;;;;;23.60;20.00;;;11.00;99.90;;;;;;5026800;28;20236;-37
2022/04/16 06:57:19;;;;;;;24.63;19.73;;;11.00;99.90;;;;;;5027582;28;20789;-38
2022/04/16 06:59:46;;;;;;;22.07;19.03;;;11.10;99.90;;;;;;5038517;28;20227;-38
2022/04/16 07:02:14;;;;;;;23.17;19.33;;;11.10;99.90;;;;;;5036491;28;20230;-38
2022/04/16 07:04:41;;;;;;;24.10;19.37;;;11.10;99.90;;;;;;5046215;28;20204;-39
2022/04/16 07:07:09;;;;;;;24.50;19.83;;;11.20;99.90;;;;;;5028548;28;20234;-38
2022/04/16 07:09:38;;;;;;;21.90;18.87;;;11.20;99.90;;;;;;5027065;28;20201;-40
2022/04/16 07:12:07;;;;;;;21.23;18.90;;;11.30;99.90;;;;;;5027594;28;20267;-38
2022/04/16 07:14:37;;;;;;;22.07;19.20;;;11.30;99.90;;;;;;5026800;28;20300;-38
2022/04/16 07:17:09;;;;;;;25.03;19.70;;;11.30;99.90;;;;;;5029452;28;20310;-37
2022/04/16 07:19:39;;;;;;;22.77;17.80;;;11.40;99.90;;;;;;5029679;28;20229;-38
2022/04/16 07:22:11;;;;;;;21.83;17.83;;;11.50;99.90;;;;;;5029909;28;20270;-37
2022/04/16 07:24:39;;;;;;;19.70;16.77;;;11.50;99.90;;;;;;5030823;28;20671;-38
2022/04/16 07:27:11;;;;;;;18.30;15.37;;;11.60;99.90;;;;;;5031240;28;20208;-37
2022/04/16 07:29:41;;;;;;;18.07;15.80;;;11.70;99.90;;;;;;5041682;28;20713;-37
2022/04/16 07:32:12;;;;;;;20.20;16.43;;;11.70;99.90;;;;;;5050921;28;20196;-37
2022/04/16 07:34:42;;;;;;;17.67;15.23;;;11.80;99.90;;;;;;5050222;28;20564;-36
2022/04/16 07:37:12;;;;;;;18.50;15.50;;;11.80;99.90;;;;;;5049553;28;20302;-37
2022/04/16 07:39:43;;;;;;;17.57;14.23;;;11.90;99.90;;;;;;5045595;28;20788;-37
2022/04/16 07:42:17;;;;;;;16.53;14.40;;;12.00;99.90;;;;;;5031033;28;20197;-37
2022/04/16 07:44:47;;;;;;;18.30;14.67;;;12.10;99.90;;;;;;5029209;28;20221;-37
2022/04/16 07:47:14;;;;;;;17.17;14.00;;;12.10;99.90;;;;;;5031082;28;20201;-36
2022/04/16 07:49:44;;;;;;;18.93;14.90;;;12.20;99.90;;;;;;5069398;28;20281;-36
2022/04/16 07:52:11;;;;;;;16.93;13.43;;;12.30;99.90;;;;;;5069466;28;20211;-37
2022/04/16 07:54:38;;;;;;;17.73;15.00;;;12.40;99.90;;;;;;5030001;28;20259;-37
2022/04/16 07:57:13;;;;;;;18.43;14.67;;;12.40;99.90;;;;;;5030451;28;20312;-36
2022/04/16 07:59:40;;;;;;;20.53;16.37;;;12.50;99.90;;;;;;5030369;28;20649;-37
2022/04/16 08:02:10;;;;;;;15.70;13.90;;;12.50;99.90;;;;;;5030198;28;20212;-37
2022/04/16 08:04:37;;;;;;;17.20;14.23;;;12.60;99.90;;;;;;5012101;28;20217;-37
2022/04/16 08:07:05;;;;;;;14.57;12.73;;;12.60;99.90;;;;;;5028747;28;20231;-37
2022/04/16 08:09:34;;;;;;;15.57;12.87;;;12.70;99.90;;;;;;5042321;28;20228;-37
2022/04/16 08:12:02;;;;;;;17.23;13.93;;;12.80;99.90;;;;;;5050155;28;20295;-38
2022/04/16 08:14:29;;;;;;;15.77;13.00;;;12.90;99.90;;;;;;5048518;28;20234;-38
2022/04/16 08:16:59;;;;;;;18.07;14.53;;;12.90;99.90;;;;;;5049345;28;20256;-38
2022/04/16 08:19:27;;;;;;;13.30;11.90;;;13.00;99.90;;;;;;5030290;28;20272;-38
2022/04/16 08:21:54;;;;;;;14.03;12.13;;;13.00;99.90;;;;;;5029169;28;20201;-38
2022/04/16 08:27:00;;;;;;;17.23;13.47;;;13.20;99.90;;;;;;5029587;28;20255;-38
2022/04/16 08:29:27;;;;;;;13.63;11.43;;;13.30;99.90;;;;;;5029644;28;20641;-38
2022/04/16 08:31:54;;;;;;;15.93;13.70;;;13.30;99.90;;;;;;5044356;28;20573;-39
2022/04/16 08:34:44;;;;;;;15.68;12.65;;;13.40;99.90;;;;;;5049293;28;20215;-38
2022/04/16 08:37:15;;;;;;;16.97;12.63;;;13.40;99.90;;;;;;5049034;28;20733;-39
2022/04/16 08:39:47;;;;;;;16.57;12.70;;;13.50;99.90;;;;;;5049734;28;20210;-38
2022/04/16 08:42:14;;;;;;;14.00;11.60;;;13.50;99.90;;;;;;5048244;28;20210;-37
2022/04/16 08:44:42;;;;;;;14.87;12.93;;;13.60;99.90;;;;;;5048424;28;20294;-37
2022/04/16 08:47:13;;;;;;;13.85;11.57;;;13.60;99.90;;;;;;5048506;28;20588;-38
2022/04/16 08:49:42;;;;;;;16.07;12.80;;;13.60;99.90;;;;;;5068610;28;20243;-38
2022/04/16 08:52:09;;;;;;;16.30;12.57;;;13.70;99.90;;;;;;5068977;28;20211;-38
2022/04/16 08:54:40;;;;;;;14.87;12.00;;;13.70;99.90;;;;;;5069094;28;20255;-38
2022/04/16 08:57:08;;;;;;;16.02;12.27;;;13.70;99.90;;;;;;5068924;28;20289;-39
2022/04/16 08:59:35;;;;;;;14.70;12.13;;;13.80;99.90;;;;;;5069186;28;20461;-39
2022/04/16 09:02:02;;;;;;;12.83;11.10;;;13.80;99.90;;;;;;5036092;28;20251;-38
2022/04/16 09:04:31;;;;;;;12.00;10.25;;;13.80;99.90;;;;;;5032775;28;20291;-38
2022/04/16 09:07:03;;;;;;;13.02;11.15;;;13.90;99.90;;;;;;5048021;28;20759;-39
2022/04/16 09:09:36;;;;;;;12.53;11.23;;;13.90;99.90;;;;;;5031178;28;20196;-38
2022/04/16 09:12:03;;;;;;;12.45;11.13;;;13.90;99.90;;;;;;5029239;28;20190;-39
2022/04/16 09:14:43;;;;;;;12.95;9.98;;;14.00;99.90;;;;;;5029052;28;20469;-39
2022/04/16 09:17:17;;;;;;;16.35;11.63;;;14.00;99.90;;;;;;5035687;28;20216;-38
2022/04/16 09:19:56;;;;;;;11.13;9.93;;;14.10;99.90;;;;;;5030743;28;20273;-37
2022/04/16 09:22:34;;;;;;;10.52;8.90;;;14.10;99.90;;;;;;5027531;28;20267;-37
2022/04/16 09:25:12;;;;;;;13.38;11.15;;;14.20;99.90;;;;;;5028702;28;20205;-38
2022/04/16 09:27:45;;;;;;;12.37;10.83;;;14.30;99.90;;;;;;5028276;28;20744;-38
2022/04/16 09:30:33;;;;;;;11.63;9.77;;;14.30;99.90;;;;;;5028875;28;20259;-39
2022/04/16 09:33:05;;;;;;;11.00;9.77;;;14.40;99.90;;;;;;5028620;28;20246;-37
2022/04/16 09:35:38;;;;;;;11.48;10.05;;;14.40;99.90;;;;;;5026986;28;20208;-38
2022/04/16 09:38:14;;;;;;;14.45;10.13;;;14.50;99.90;;;;;;5028275;28;20227;-37
2022/04/16 09:40:47;;;;;;;13.77;11.18;;;14.50;99.90;;;;;;5047562;28;20196;-37
2022/04/16 09:43:15;;;;;;;11.65;9.20;;;14.60;99.90;;;;;;5030374;28;20220;-38
2022/04/16 09:45:47;;;;;;;11.10;9.43;;;14.60;99.90;;;;;;5048216;28;20196;-38
2022/04/16 09:48:14;;;;;;;9.63;8.63;;;14.70;99.90;;;;;;5056434;28;20199;-38
2022/04/16 09:50:43;;;;;;;11.82;8.75;;;14.70;99.90;;;;;;5066885;28;20203;-38
2022/04/16 09:53:13;;;;;;;10.25;8.35;;;14.80;99.90;;;;;;5049845;28;20246;-40
2022/04/16 09:55:42;;;;;;;9.18;7.43;;;14.80;99.90;;;;;;5043021;28;20250;-37
2022/04/16 09:58:11;;;;;;;9.30;7.93;;;14.90;99.90;;;;;;5027911;28;20229;-37
2022/04/16 10:00:39;;;;;;;9.40;7.57;;;14.90;99.90;;;;;;5027795;28;20203;-37
2022/04/16 10:03:27;;;;;;;9.52;8.10;;;15.00;99.90;;;;;;5027991;28;20197;-38
2022/04/16 10:05:58;;;;;;;9.20;5.80;;;15.00;99.90;;;;;;5027169;28;20197;-37
2022/04/16 10:08:28;;;;;;;7.60;5.78;;;15.10;99.90;;;;;;5027750;28;20566;-37
2022/04/16 10:10:58;;;;;;;7.10;6.32;;;15.10;99.90;;;;;;5027760;28;20208;-37
2022/04/16 10:13:34;;;;;;;6.53;5.93;;;15.10;99.90;;;;;;5038383;28;20254;-36
2022/04/16 10:16:22;;;;;;;6.25;5.38;;;15.20;99.90;;;;;;5047684;28;20223;-37
2022/04/16 10:18:51;;;;;;;9.80;6.45;;;15.20;99.90;;;;;;5046991;28;20227;-38
2022/04/16 10:21:23;;;;;;;8.15;7.00;;;15.20;99.90;;;;;;5027818;28;20479;-38
2022/04/16 10:24:00;;;;;;;8.60;6.90;;;15.20;99.90;;;;;;5026756;28;20590;-38
2022/04/16 10:26:42;;;;;;;7.22;6.38;;;15.20;99.90;;;;;;5037127;28;20212;-38
2022/04/16 10:29:19;;;;;;;7.45;6.63;;;15.30;99.90;;;;;;5035469;28;20746;-38
2022/04/16 10:31:52;;;;;;;8.38;6.60;;;15.30;99.90;;;;;;5027209;28;20208;-39
2022/04/16 10:34:30;;;;;;;6.28;5.68;;;15.40;99.90;;;;;;5027210;28;20211;-38
2022/04/16 10:36:58;;;;;;;8.95;7.47;;;15.40;99.90;;;;;;5026342;28;20208;-38
2022/04/16 10:39:28;;;;;;;9.45;8.25;;;15.40;99.90;;;;;;5027137;28;20219;-38
2022/04/16 10:42:05;;;;;;;7.85;6.65;;;15.50;99.90;;;;;;5025807;28;20299;-38
2022/04/16 10:44:51;;;;;;;8.48;7.20;;;15.50;99.90;;;;;;5027091;28;20205;-36
2022/04/16 10:47:30;;;;;;;7.10;6.40;;;15.50;99.90;;;;;;5030688;28;20635;-38
2022/04/16 10:49:57;;;;;;;6.40;5.72;;;15.60;99.90;;;;;;5066210;28;20361;-36
2022/04/16 10:52:28;;;;;;;8.27;5.95;;;15.60;99.90;;;;;;5065656;28;20199;-36
2022/04/16 10:55:05;;;;;;;5.90;5.22;;;15.70;99.90;;;;;;5065406;28;20314;-38
2022/04/16 10:57:37;;;;;;;6.40;5.80;;;15.80;99.90;;;;;;5066795;28;20412;-37
2022/04/16 11:00:13;;;;;;;7.65;6.32;;;15.80;99.90;;;;;;5051641;28;20204;-38
2022/04/16 11:03:11;;;;;;;6.15;5.20;;;15.90;99.90;;;;;;5026041;28;20609;-38
2022/04/16 11:05:41;;;;;;;7.47;6.57;;;15.90;99.90;;;;;;5025842;28;20284;-37
2022/04/16 11:08:15;;;;;;;6.80;6.10;;;15.90;99.20;;;;;;5031530;28;20209;-38
2022/04/16 11:10:42;;;;;;;9.38;6.30;;;16.00;99.90;;;;;;5045588;28;20204;-37
2022/04/16 11:13:15;;;;;;;6.32;5.72;;;16.00;99.90;;;;;;5046875;28;20560;-37
2022/04/16 11:15:45;;;;;;;7.18;6.20;;;16.00;99.90;;;;;;5046821;28;20220;-38
2022/04/16 11:18:15;;;;;;;7.05;5.60;;;16.10;99.90;;;;;;5029351;28;20220;-38
2022/04/16 11:20:45;;;;;;;6.68;5.75;;;16.10;99.90;;;;;;5026841;28;20638;-37
2022/04/16 11:23:12;;;;;;;7.38;6.43;;;16.20;99.90;;;;;;5024989;28;20204;-38
2022/04/16 11:34:17;;;;;;;9.02;7.68;;;16.30;99.90;;;;;;5028045;28;21718;-37
2022/04/16 11:36:50;;;;;;;8.05;7.25;;;16.30;99.90;;;;;;5035964;28;20232;-37
2022/04/16 11:39:26;;;;;;;10.15;7.05;;;16.40;99.90;;;;;;5025900;28;20235;-38
2022/04/16 11:41:55;;;;;;;8.60;7.55;;;16.40;99.90;;;;;;5026870;28;20286;-37
2022/04/16 11:44:50;;;;;;;10.20;7.38;;;16.50;99.90;;;;;;5025166;28;20319;-38
2022/04/16 11:47:22;;;;;;;7.78;6.97;;;16.50;99.90;;;;;;5028392;28;20233;-38
2022/04/16 11:49:58;;;;;;;7.55;6.65;;;16.50;99.80;;;;;;5065953;28;20540;-36
2022/04/16 11:52:31;;;;;;;7.57;6.78;;;16.50;99.80;;;;;;5026132;28;20216;-38
2022/04/16 11:55:06;;;;;;;7.90;6.55;;;16.50;99.80;;;;;;5033695;28;20263;-38
2022/04/16 11:57:34;;;;;;;9.15;6.70;;;16.50;99.30;;;;;;5046410;28;20700;-37
2022/04/16 12:00:07;;;;;;;7.20;6.40;;;16.50;98.60;;;;;;5044499;28;20626;-36
2022/04/16 12:02:36;;;;;;;7.85;6.88;;;16.50;99.30;;;;;;5047349;28;20197;-37
2022/04/16 12:05:16;;;;;;;8.30;7.22;;;16.50;99.70;;;;;;5049265;28;20235;-37
2022/04/16 12:07:48;;;;;;;9.07;8.18;;;16.60;99.50;;;;;;5046861;28;20580;-37
2022/04/16 12:10:17;;;;;;;8.93;7.53;;;16.60;99.20;;;;;;5048083;28;20247;-38
2022/04/16 12:12:48;;;;;;;7.15;6.45;;;16.60;99.50;;;;;;5048929;28;20238;-37
2022/04/16 12:15:45;;;;;;;6.65;6.05;;;16.70;99.50;;;;;;5049624;28;20674;-37
2022/04/16 12:18:19;;;;;;;7.25;6.53;;;16.70;99.90;;;;;;5048049;28;20585;-37
2022/04/16 12:20:49;;;;;;;8.52;7.57;;;16.70;99.60;;;;;;5046962;28;20295;-37
2022/04/16 12:23:20;;;;;;;9.07;7.38;;;16.80;99.30;;;;;;5047673;28;20214;-37
2022/04/16 12:26:01;;;;;;;8.70;7.80;;;16.80;99.80;;;;;;5046609;28;20220;-37
2022/04/16 12:28:35;;;;;;;8.50;7.28;;;16.90;99.00;;;;;;5045608;28;20332;-38
2022/04/16 12:31:03;;;;;;;7.07;6.38;;;16.90;99.70;;;;;;5029602;28;20200;-37
2022/04/16 12:33:32;;;;;;;7.50;6.80;;;17.00;99.80;;;;;;5028985;28;20617;-37
2022/04/16 12:36:00;;;;;;;8.00;6.55;;;17.00;99.90;;;;;;5028629;28;20703;-37
2022/04/16 12:38:27;;;;;;;8.32;7.00;;;17.10;99.90;;;;;;5028994;28;20256;-37
2022/04/16 12:41:09;;;;;;;8.80;7.13;;;17.20;99.90;;;;;;5034240;28;20578;-37
2022/04/16 12:43:40;;;;;;;10.00;8.40;;;17.20;99.90;;;;;;5033121;28;20300;-37
2022/04/16 12:46:10;;;;;;;8.45;7.57;;;17.20;99.70;;;;;;5035975;28;20222;-37
2022/04/16 12:48:43;;;;;;;8.10;7.10;;;17.30;99.90;;;;;;5060441;28;20643;-38
2022/04/16 12:51:11;;;;;;;10.13;7.78;;;17.40;99.90;;;;;;5068083;28;20592;-38
2022/04/16 12:53:38;;;;;;;8.15;6.47;;;17.40;99.80;;;;;;5068210;28;20682;-36
2022/04/16 12:56:08;;;;;;;11.13;7.85;;;17.50;99.90;;;;;;5068096;28;20243;-38
2022/04/16 12:58:37;;;;;;;9.50;7.63;;;17.60;99.90;;;;;;5061086;28;20661;-38
2022/04/16 13:01:04;;;;;;;8.40;7.50;;;17.60;99.90;;;;;;5026112;28;20296;-37
2022/04/16 13:03:32;;;;;;;6.97;6.20;;;17.70;99.60;;;;;;5040098;28;20228;-38
2022/04/16 13:06:02;;;;;;;7.30;5.93;;;17.70;99.90;;;;;;5048350;28;20224;-37
2022/04/16 13:08:30;;;;;;;8.60;7.35;;;17.70;99.90;;;;;;5047639;28;20231;-37
2022/04/16 13:11:01;;;;;;;7.00;6.40;;;17.80;99.80;;;;;;5047982;28;20213;-38
2022/04/16 13:13:31;;;;;;;6.28;5.68;;;17.90;99.70;;;;;;5048225;28;20396;-37
2022/04/16 13:16:01;;;;;;;6.63;5.93;;;17.90;99.90;;;;;;5041407;28;20231;-37